Stafford Springs, Connecticut
Current Conditions -  °F | °C
As of 8:09 AM on Thursday 23 Oct 2014 (Local Time) from KIJD Reporting Station
Light Rain Light Rain  
Wind Chill: 53°   Ceiling: 8500
Heat Index: 53°   Visibility: 10mi
Dew Point: 46°   Wind: 20mph
Humidity: 77%   Direction: 10°N
Pressure: 29.61"   Gusts: 35mph
Location:  41.95°N, 72.3°W
Report Text: KIJD 231209Z AUTO 01017G30KT 10SM -RA SCT020 OVC085 12/08 A2961 RMK AO2 PK WND 36030/1204 RAB1158 P0000 T01170078
Loading
Personal Weather Stations






























Interactive Weather Map
Tropical Storm Tracking
New forecast layout! Learn more

10-Day Weather Forecast

Advertisements
Track Severe Weather on mobile